Terminal Aerodrome Forecast
Issued by NWS

Home | Current Version | Previous Version | Text Only | Print | Product List | Glossary On
Versions: 1 2 3 4 5 6 7 8 9 10 11 12 13 14 15 16 17 18 19 20
455
FTUS43 KILX 142106 AAB
TAFCMI
TAF AMD
KCMI 142106Z 1421/1518 12017G23KT 3SM -SN BR SCT010 OVC035
      TEMPO 1421/1423 6SM -SN BR OVC012
     FM142300 13015G21KT 4SM -SN BR OVC015
      TEMPO 1423/1501 6SM -SN BR SCT015 OVC025
     FM150100 15010KT 4SM BR VCSH BKN006 OVC012
     FM150700 17008KT 4SM BR OVC007
     FM151400 19007KT 4SM BR OVC015=

USA.gov is the U.S. government's official web portal to all federal, state and local government web resources and services.